TimeCDT,TemperatureF,Dew PointF,Humidity,Sea Level PressureIn,VisibilityMPH,Wind Direction,Wind SpeedMPH,Gust SpeedMPH,PrecipitationIn,Events,Conditions,WindDirDegrees,DateUTC
12:53 AM,46.9,46.0,97,30.00,6.0,East,3.5,-,N/A,,Clear,90,2012-11-01 05:53:00
1:53 AM,46.9,45.0,93,30.00,7.0,Calm,Calm,-,N/A,,Clear,0,2012-11-01 06:53:00
2:09 AM,45.0,43.0,93,30.01,1.5,Calm,Calm,-,N/A,,Clear,0,2012-11-01 07:09:00
2:18 AM,45.0,43.0,93,30.01,0.2,NE,3.5,-,N/A,Fog,Fog,50,2012-11-01 07:18:00
2:32 AM,44.1,43.0,96,30.01,1.0,Calm,Calm,-,N/A,,Clear,0,2012-11-01 07:32:00
2:36 AM,45.0,44.1,97,30.01,3.0,Calm,Calm,-,N/A,,Clear,0,2012-11-01 07:36:00
2:53 AM,44.1,43.0,96,30.00,3.0,Calm,Calm,-,N/A,,Clear,0,2012-11-01 07:53:00
2:56 AM,45.0,44.1,97,30.01,1.8,Calm,Calm,-,N/A,,Clear,0,2012-11-01 07:56:00
3:05 AM,45.0,44.1,97,30.01,0.5,Calm,Calm,-,N/A,Fog,Fog,0,2012-11-01 08:05:00
3:30 AM,44.1,43.0,96,30.01,2.5,Calm,Calm,-,N/A,,Clear,0,2012-11-01 08:30:00
3:37 AM,45.0,43.0,93,30.01,7.0,Calm,Calm,-,N/A,,Clear,0,2012-11-01 08:37:00
3:44 AM,45.0,44.1,97,30.01,1.5,Calm,Calm,-,N/A,,Clear,0,2012-11-01 08:44:00
3:53 AM,44.1,43.0,96,30.00,0.2,Calm,Calm,-,N/A,Fog,Fog,0,2012-11-01 08:53:00
4:00 AM,44.1,43.0,96,30.00,0.8,Calm,Calm,-,N/A,,Clear,0,2012-11-01 09:00:00
4:07 AM,44.1,43.0,96,30.00,1.8,Calm,Calm,-,N/A,,Clear,0,2012-11-01 09:07:00
4:14 AM,44.1,43.0,96,30.00,2.0,Calm,Calm,-,N/A,,Clear,0,2012-11-01 09:14:00
4:18 AM,44.1,43.0,96,30.00,0.8,Calm,Calm,-,N/A,,Clear,0,2012-11-01 09:18:00
4:29 AM,43.0,43.0,100,30.00,0.2,Calm,Calm,-,N/A,Fog,Fog,0,2012-11-01 09:29:00
4:53 AM,43.0,42.1,97,30.00,0.2,Calm,Calm,-,N/A,Fog,Fog,0,2012-11-01 09:53:00
5:00 AM,43.0,42.1,97,30.01,0.5,Calm,Calm,-,N/A,Fog,Fog,0,2012-11-01 10:00:00
5:10 AM,44.1,43.0,96,30.01,0.5,Calm,Calm,-,N/A,Fog,Fog,0,2012-11-01 10:10:00
5:32 AM,43.0,42.1,97,30.01,0.5,Calm,Calm,-,N/A,Fog,Fog,0,2012-11-01 10:32:00
5:37 AM,43.0,42.1,97,30.01,2.0,Calm,Calm,-,N/A,,Clear,0,2012-11-01 10:37:00
5:44 AM,43.0,42.1,97,30.01,6.0,Calm,Calm,-,N/A,,Clear,0,2012-11-01 10:44:00
5:53 AM,43.0,42.1,97,30.01,6.0,Calm,Calm,-,N/A,,Clear,0,2012-11-01 10:53:00
6:00 AM,43.0,42.1,97,30.02,1.5,Calm,Calm,-,N/A,,Clear,0,2012-11-01 11:00:00
6:09 AM,43.0,42.1,97,30.02,0.5,Calm,Calm,-,N/A,Fog,Fog,0,2012-11-01 11:09:00
6:43 AM,41.0,41.0,100,30.02,0.2,Calm,Calm,-,N/A,Fog,Fog,0,2012-11-01 11:43:00
6:53 AM,42.1,41.0,96,30.02,0.5,Calm,Calm,-,N/A,Fog,Fog,0,2012-11-01 11:53:00
7:04 AM,42.1,41.0,96,30.03,1.0,Calm,Calm,-,N/A,,Mist,0,2012-11-01 12:04:00
7:17 AM,41.0,39.9,96,30.03,0.5,Calm,Calm,-,N/A,Fog,Fog,0,2012-11-01 12:17:00
7:42 AM,41.0,39.9,96,30.03,3.0,Calm,Calm,-,N/A,,Partly Cloudy,0,2012-11-01 12:42:00
7:53 AM,42.1,41.0,96,30.04,1.5,Calm,Calm,-,N/A,,Partly Cloudy,0,2012-11-01 12:53:00
8:07 AM,42.1,42.1,100,30.05,3.0,Calm,Calm,-,N/A,,Clear,0,2012-11-01 13:07:00
8:53 AM,48.0,46.0,93,30.05,6.0,East,3.5,-,N/A,,Clear,80,2012-11-01 13:53:00
9:50 AM,59.0,50.0,72,30.06,2.5,East,5.8,-,N/A,,Haze,100,2012-11-01 14:50:00
9:53 AM,60.1,50.0,69,30.05,6.0,East,5.8,-,N/A,,Haze,100,2012-11-01 14:53:00
11:53 AM,68.0,50.0,52,30.04,10.0,Variable,6.9,-,N/A,,Clear,0,2012-11-01 16:53:00
12:53 PM,72.0,48.9,44,30.01,10.0,Variable,3.5,-,N/A,,Clear,0,2012-11-01 17:53:00
1:53 PM,75.0,48.9,40,29.97,10.0,East,5.8,-,N/A,,Clear,100,2012-11-01 18:53:00
2:53 PM,78.1,48.9,36,29.94,10.0,South,8.1,-,N/A,,Clear,170,2012-11-01 19:53:00
3:53 PM,79.0,48.9,35,29.92,10.0,SSE,4.6,-,N/A,,Clear,160,2012-11-01 20:53:00
4:53 PM,79.0,50.0,36,29.91,10.0,SSE,4.6,-,N/A,,Clear,150,2012-11-01 21:53:00
5:53 PM,75.0,52.0,44,29.91,10.0,Calm,Calm,-,N/A,,Clear,0,2012-11-01 22:53:00
6:53 PM,64.9,54.0,68,29.92,10.0,East,4.6,-,N/A,,Clear,100,2012-11-01 23:53:00
7:53 PM,57.9,53.1,84,29.93,10.0,ENE,3.5,-,N/A,,Clear,70,2012-11-02 00:53:00
8:53 PM,57.0,53.1,87,29.94,10.0,East,3.5,-,N/A,,Clear,80,2012-11-02 01:53:00
9:53 PM,55.0,52.0,89,29.94,8.0,Calm,Calm,-,N/A,,Clear,0,2012-11-02 02:53:00
10:53 PM,54.0,51.1,90,29.94,9.0,Calm,Calm,-,N/A,,Clear,0,2012-11-02 03:53:00
11:53 PM,52.0,50.0,93,29.94,6.0,ENE,3.5,-,N/A,,Clear,70,2012-11-02 04:53:00